sensor_id;sensor_type;location;lat;lon;timestamp;P1;durP1;ratioP1;P2;durP2;ratioP2
10823;SDS011;39116;59.332;18.034;2023-04-06T00:01:29;5.80;;;3.97;;
10823;SDS011;39116;59.332;18.034;2023-04-06T00:03:51;6.10;;;4.30;;
10823;SDS011;39116;59.332;18.034;2023-04-06T00:06:13;5.70;;;4.30;;
10823;SDS011;39116;59.332;18.034;2023-04-06T00:08:35;9.60;;;4.37;;
10823;SDS011;39116;59.332;18.034;2023-04-06T00:10:57;7.33;;;4.10;;
10823;SDS011;39116;59.332;18.034;2023-04-06T00:13:19;6.80;;;4.10;;
10823;SDS011;39116;59.332;18.034;2023-04-06T00:15:42;5.63;;;4.00;;
10823;SDS011;39116;59.332;18.034;2023-04-06T00:18:04;6.83;;;4.17;;
10823;SDS011;39116;59.332;18.034;2023-04-06T00:20:26;6.47;;;4.40;;
10823;SDS011;39116;59.332;18.034;2023-04-06T00:22:48;4.63;;;3.70;;
10823;SDS011;39116;59.332;18.034;2023-04-06T00:25:11;4.53;;;3.67;;
10823;SDS011;39116;59.332;18.034;2023-04-06T00:27:35;5.67;;;3.90;;
10823;SDS011;39116;59.332;18.034;2023-04-06T00:29:57;5.53;;;3.70;;
10823;SDS011;39116;59.332;18.034;2023-04-06T00:32:20;6.13;;;4.03;;
10823;SDS011;39116;59.332;18.034;2023-04-06T00:34:42;4.70;;;4.10;;
10823;SDS011;39116;59.332;18.034;2023-04-06T00:37:04;7.07;;;4.20;;
10823;SDS011;39116;59.332;18.034;2023-04-06T00:39:26;6.13;;;4.20;;
10823;SDS011;39116;59.332;18.034;2023-04-06T00:41:49;6.90;;;4.37;;
10823;SDS011;39116;59.332;18.034;2023-04-06T00:44:13;6.03;;;4.43;;
10823;SDS011;39116;59.332;18.034;2023-04-06T00:46:35;9.10;;;4.63;;
10823;SDS011;39116;59.332;18.034;2023-04-06T00:48:58;7.33;;;4.10;;
10823;SDS011;39116;59.332;18.034;2023-04-06T00:51:20;8.13;;;5.07;;
10823;SDS011;39116;59.332;18.034;2023-04-06T00:53:42;8.17;;;4.87;;
10823;SDS011;39116;59.332;18.034;2023-04-06T00:56:05;7.30;;;4.03;;
10823;SDS011;39116;59.332;18.034;2023-04-06T00:58:29;8.53;;;4.80;;
10823;SDS011;39116;59.332;18.034;2023-04-06T01:00:51;5.47;;;4.47;;
10823;SDS011;39116;59.332;18.034;2023-04-06T01:03:13;6.70;;;4.43;;
10823;SDS011;39116;59.332;18.034;2023-04-06T01:05:37;6.63;;;4.43;;
10823;SDS011;39116;59.332;18.034;2023-04-06T01:08:00;8.80;;;4.33;;
10823;SDS011;39116;59.332;18.034;2023-04-06T01:10:22;6.93;;;4.37;;
10823;SDS011;39116;59.332;18.034;2023-04-06T01:12:45;6.87;;;4.27;;
10823;SDS011;39116;59.332;18.034;2023-04-06T01:15:08;6.03;;;4.80;;
10823;SDS011;39116;59.332;18.034;2023-04-06T01:17:31;7.67;;;4.30;;
10823;SDS011;39116;59.332;18.034;2023-04-06T01:19:53;6.50;;;3.93;;
10823;SDS011;39116;59.332;18.034;2023-04-06T01:22:16;7.27;;;4.67;;
10823;SDS011;39116;59.332;18.034;2023-04-06T01:24:38;5.73;;;4.60;;
10823;SDS011;39116;59.332;18.034;2023-04-06T01:27:00;6.20;;;4.40;;
10823;SDS011;39116;59.332;18.034;2023-04-06T01:29:22;5.30;;;4.40;;
10823;SDS011;39116;59.332;18.034;2023-04-06T01:31:44;6.37;;;4.43;;
10823;SDS011;39116;59.332;18.034;2023-04-06T01:34:06;6.50;;;4.70;;
10823;SDS011;39116;59.332;18.034;2023-04-06T01:36:28;5.43;;;4.60;;
10823;SDS011;39116;59.332;18.034;2023-04-06T01:38:51;7.13;;;4.33;;
10823;SDS011;39116;59.332;18.034;2023-04-06T01:41:13;6.53;;;4.50;;
10823;SDS011;39116;59.332;18.034;2023-04-06T01:43:35;7.20;;;4.27;;
10823;SDS011;39116;59.332;18.034;2023-04-06T01:45:57;6.30;;;4.73;;
10823;SDS011;39116;59.332;18.034;2023-04-06T01:48:19;7.93;;;4.57;;
10823;SDS011;39116;59.332;18.034;2023-04-06T01:50:41;6.13;;;3.93;;
10823;SDS011;39116;59.332;18.034;2023-04-06T01:53:03;4.70;;;4.20;;
10823;SDS011;39116;59.332;18.034;2023-04-06T01:55:26;6.80;;;4.50;;
10823;SDS011;39116;59.332;18.034;2023-04-06T01:57:48;4.90;;;4.07;;
10823;SDS011;39116;59.332;18.034;2023-04-06T02:00:11;6.10;;;4.03;;
10823;SDS011;39116;59.332;18.034;2023-04-06T02:02:34;5.27;;;3.80;;
10823;SDS011;39116;59.332;18.034;2023-04-06T02:04:56;6.17;;;4.23;;
10823;SDS011;39116;59.332;18.034;2023-04-06T02:07:18;6.23;;;4.10;;
10823;SDS011;39116;59.332;18.034;2023-04-06T02:09:40;5.17;;;3.83;;
10823;SDS011;39116;59.332;18.034;2023-04-06T02:12:03;5.33;;;3.57;;
10823;SDS011;39116;59.332;18.034;2023-04-06T02:14:26;4.67;;;3.50;;
10823;SDS011;39116;59.332;18.034;2023-04-06T02:16:47;6.67;;;3.87;;
10823;SDS011;39116;59.332;18.034;2023-04-06T02:19:10;5.43;;;3.63;;
10823;SDS011;39116;59.332;18.034;2023-04-06T02:21:32;6.00;;;3.77;;
10823;SDS011;39116;59.332;18.034;2023-04-06T02:23:54;7.13;;;3.43;;
10823;SDS011;39116;59.332;18.034;2023-04-06T02:26:16;5.13;;;3.63;;
10823;SDS011;39116;59.332;18.034;2023-04-06T02:28:39;4.10;;;3.37;;
10823;SDS011;39116;59.332;18.034;2023-04-06T02:31:01;6.33;;;4.07;;
10823;SDS011;39116;59.332;18.034;2023-04-06T02:33:23;4.30;;;3.50;;
10823;SDS011;39116;59.332;18.034;2023-04-06T02:35:45;5.90;;;3.77;;
10823;SDS011;39116;59.332;18.034;2023-04-06T02:38:07;5.17;;;3.30;;
10823;SDS011;39116;59.332;18.034;2023-04-06T02:40:29;4.73;;;3.30;;
10823;SDS011;39116;59.332;18.034;2023-04-06T02:42:51;5.00;;;3.60;;
10823;SDS011;39116;59.332;18.034;2023-04-06T02:45:15;5.00;;;3.53;;
10823;SDS011;39116;59.332;18.034;2023-04-06T02:47:36;4.93;;;3.60;;
10823;SDS011;39116;59.332;18.034;2023-04-06T02:49:58;4.07;;;3.33;;
10823;SDS011;39116;59.332;18.034;2023-04-06T02:52:20;4.97;;;3.23;;
10823;SDS011;39116;59.332;18.034;2023-04-06T02:54:42;3.80;;;3.40;;
10823;SDS011;39116;59.332;18.034;2023-04-06T02:57:04;5.13;;;3.23;;
10823;SDS011;39116;59.332;18.034;2023-04-06T02:59:27;4.33;;;3.60;;
10823;SDS011;39116;59.332;18.034;2023-04-06T03:01:50;3.80;;;3.30;;
10823;SDS011;39116;59.332;18.034;2023-04-06T03:04:12;5.27;;;3.90;;
10823;SDS011;39116;59.332;18.034;2023-04-06T03:06:34;5.97;;;3.33;;
10823;SDS011;39116;59.332;18.034;2023-04-06T03:08:56;5.07;;;3.70;;
10823;SDS011;39116;59.332;18.034;2023-04-06T03:11:18;6.57;;;3.50;;
10823;SDS011;39116;59.332;18.034;2023-04-06T03:13:40;3.93;;;3.33;;
10823;SDS011;39116;59.332;18.034;2023-04-06T03:16:02;4.57;;;3.40;;
10823;SDS011;39116;59.332;18.034;2023-04-06T03:18:26;3.87;;;3.37;;
10823;SDS011;39116;59.332;18.034;2023-04-06T03:20:48;4.87;;;3.50;;
10823;SDS011;39116;59.332;18.034;2023-04-06T03:23:10;5.20;;;3.53;;
10823;SDS011;39116;59.332;18.034;2023-04-06T03:25:32;5.73;;;3.17;;
10823;SDS011;39116;59.332;18.034;2023-04-06T03:27:54;4.70;;;3.70;;
10823;SDS011;39116;59.332;18.034;2023-04-06T03:30:16;4.43;;;3.57;;
10823;SDS011;39116;59.332;18.034;2023-04-06T03:32:39;4.57;;;3.20;;
10823;SDS011;39116;59.332;18.034;2023-04-06T03:35:02;5.53;;;3.73;;
10823;SDS011;39116;59.332;18.034;2023-04-06T03:37:24;4.20;;;3.50;;
10823;SDS011;39116;59.332;18.034;2023-04-06T03:39:46;5.00;;;3.30;;
10823;SDS011;39116;59.332;18.034;2023-04-06T03:42:08;5.20;;;3.70;;
10823;SDS011;39116;59.332;18.034;2023-04-06T03:44:30;4.43;;;3.37;;
10823;SDS011;39116;59.332;18.034;2023-04-06T03:46:52;4.10;;;3.47;;
10823;SDS011;39116;59.332;18.034;2023-04-06T03:49:14;3.90;;;3.50;;
10823;SDS011;39116;59.332;18.034;2023-04-06T03:51:37;3.70;;;3.23;;
10823;SDS011;39116;59.332;18.034;2023-04-06T03:53:59;4.47;;;3.10;;
10823;SDS011;39116;59.332;18.034;2023-04-06T03:56:21;3.40;;;3.10;;
10823;SDS011;39116;59.332;18.034;2023-04-06T03:58:43;5.23;;;3.20;;
10823;SDS011;39116;59.332;18.034;2023-04-06T04:01:09;3.63;;;3.30;;
10823;SDS011;39116;59.332;18.034;2023-04-06T04:03:31;4.50;;;3.20;;
10823;SDS011;39116;59.332;18.034;2023-04-06T04:05:53;4.87;;;3.33;;
10823;SDS011;39116;59.332;18.034;2023-04-06T04:08:17;3.70;;;3.30;;
10823;SDS011;39116;59.332;18.034;2023-04-06T04:10:39;4.67;;;3.10;;
10823;SDS011;39116;59.332;18.034;2023-04-06T04:13:01;4.07;;;3.20;;
10823;SDS011;39116;59.332;18.034;2023-04-06T04:15:23;4.20;;;3.20;;
10823;SDS011;39116;59.332;18.034;2023-04-06T04:17:45;5.43;;;3.10;;
10823;SDS011;39116;59.332;18.034;2023-04-06T04:20:09;4.67;;;3.20;;
10823;SDS011;39116;59.332;18.034;2023-04-06T04:22:31;4.10;;;3.27;;
10823;SDS011;39116;59.332;18.034;2023-04-06T04:24:55;4.10;;;3.03;;
10823;SDS011;39116;59.332;18.034;2023-04-06T04:27:17;4.70;;;3.37;;
10823;SDS011;39116;59.332;18.034;2023-04-06T04:29:39;3.87;;;3.20;;
10823;SDS011;39116;59.332;18.034;2023-04-06T04:32:00;5.23;;;3.47;;
10823;SDS011;39116;59.332;18.034;2023-04-06T04:34:23;4.03;;;3.57;;
10823;SDS011;39116;59.332;18.034;2023-04-06T04:36:45;5.10;;;3.67;;
10823;SDS011;39116;59.332;18.034;2023-04-06T04:39:07;4.67;;;3.77;;
10823;SDS011;39116;59.332;18.034;2023-04-06T04:41:30;3.53;;;3.17;;
10823;SDS011;39116;59.332;18.034;2023-04-06T04:43:52;5.30;;;2.97;;
10823;SDS011;39116;59.332;18.034;2023-04-06T04:46:14;3.30;;;2.70;;
10823;SDS011;39116;59.332;18.034;2023-04-06T04:48:36;6.00;;;3.27;;
10823;SDS011;39116;59.332;18.034;2023-04-06T04:50:58;4.70;;;3.27;;
10823;SDS011;39116;59.332;18.034;2023-04-06T04:53:20;4.33;;;3.07;;
10823;SDS011;39116;59.332;18.034;2023-04-06T04:55:42;4.00;;;3.27;;
10823;SDS011;39116;59.332;18.034;2023-04-06T04:58:05;4.47;;;2.93;;
10823;SDS011;39116;59.332;18.034;2023-04-06T05:00:29;4.53;;;3.30;;
10823;SDS011;39116;59.332;18.034;2023-04-06T05:02:50;4.93;;;2.77;;
10823;SDS011;39116;59.332;18.034;2023-04-06T05:05:12;4.20;;;3.07;;
10823;SDS011;39116;59.332;18.034;2023-04-06T05:07:34;4.03;;;3.20;;
10823;SDS011;39116;59.332;18.034;2023-04-06T05:09:56;3.53;;;3.07;;
10823;SDS011;39116;59.332;18.034;2023-04-06T05:12:18;4.77;;;2.90;;
10823;SDS011;39116;59.332;18.034;2023-04-06T05:14:42;4.73;;;3.13;;
10823;SDS011;39116;59.332;18.034;2023-04-06T05:17:04;4.80;;;3.10;;
10823;SDS011;39116;59.332;18.034;2023-04-06T05:19:26;5.80;;;3.23;;
10823;SDS011;39116;59.332;18.034;2023-04-06T05:21:48;5.60;;;3.50;;
10823;SDS011;39116;59.332;18.034;2023-04-06T05:24:10;6.60;;;3.27;;
10823;SDS011;39116;59.332;18.034;2023-04-06T05:26:32;3.90;;;2.63;;
10823;SDS011;39116;59.332;18.034;2023-04-06T05:28:54;3.90;;;3.03;;
10823;SDS011;39116;59.332;18.034;2023-04-06T05:31:17;3.33;;;2.80;;
10823;SDS011;39116;59.332;18.034;2023-04-06T05:33:39;6.47;;;3.27;;
10823;SDS011;39116;59.332;18.034;2023-04-06T05:36:01;3.30;;;2.80;;
10823;SDS011;39116;59.332;18.034;2023-04-06T05:38:25;4.67;;;2.93;;
10823;SDS011;39116;59.332;18.034;2023-04-06T05:40:47;4.60;;;3.03;;
10823;SDS011;39116;59.332;18.034;2023-04-06T05:43:09;6.77;;;3.37;;
10823;SDS011;39116;59.332;18.034;2023-04-06T05:45:31;3.47;;;3.10;;
10823;SDS011;39116;59.332;18.034;2023-04-06T05:47:54;3.60;;;3.17;;
10823;SDS011;39116;59.332;18.034;2023-04-06T05:50:16;4.47;;;3.10;;
10823;SDS011;39116;59.332;18.034;2023-04-06T05:52:38;3.27;;;2.90;;
10823;SDS011;39116;59.332;18.034;2023-04-06T05:55:03;4.93;;;3.03;;
10823;SDS011;39116;59.332;18.034;2023-04-06T05:57:26;4.83;;;3.03;;
10823;SDS011;39116;59.332;18.034;2023-04-06T05:59:48;5.13;;;3.07;;
10823;SDS011;39116;59.332;18.034;2023-04-06T06:02:10;3.73;;;3.07;;
10823;SDS011;39116;59.332;18.034;2023-04-06T06:04:33;4.37;;;3.07;;
10823;SDS011;39116;59.332;18.034;2023-04-06T06:06:55;5.93;;;3.27;;
10823;SDS011;39116;59.332;18.034;2023-04-06T06:09:17;3.83;;;2.90;;
10823;SDS011;39116;59.332;18.034;2023-04-06T06:11:39;5.23;;;2.83;;
10823;SDS011;39116;59.332;18.034;2023-04-06T06:14:02;5.20;;;3.30;;
10823;SDS011;39116;59.332;18.034;2023-04-06T06:16:24;5.13;;;2.90;;
10823;SDS011;39116;59.332;18.034;2023-04-06T06:18:45;3.87;;;2.93;;
10823;SDS011;39116;59.332;18.034;2023-04-06T06:21:09;3.37;;;2.93;;
10823;SDS011;39116;59.332;18.034;2023-04-06T06:23:32;5.03;;;3.30;;
10823;SDS011;39116;59.332;18.034;2023-04-06T06:25:54;4.47;;;3.03;;
10823;SDS011;39116;59.332;18.034;2023-04-06T06:28:18;5.40;;;3.30;;
10823;SDS011;39116;59.332;18.034;2023-04-06T06:30:40;5.47;;;3.20;;
10823;SDS011;39116;59.332;18.034;2023-04-06T06:33:01;3.43;;;2.90;;
10823;SDS011;39116;59.332;18.034;2023-04-06T06:35:23;6.43;;;3.33;;
10823;SDS011;39116;59.332;18.034;2023-04-06T06:37:47;3.83;;;3.20;;
10823;SDS011;39116;59.332;18.034;2023-04-06T06:40:09;3.90;;;2.90;;
10823;SDS011;39116;59.332;18.034;2023-04-06T06:42:33;5.30;;;3.33;;
10823;SDS011;39116;59.332;18.034;2023-04-06T06:44:55;4.20;;;2.97;;
10823;SDS011;39116;59.332;18.034;2023-04-06T06:47:17;3.63;;;2.90;;
10823;SDS011;39116;59.332;18.034;2023-04-06T06:49:38;5.20;;;3.30;;
10823;SDS011;39116;59.332;18.034;2023-04-06T06:52:00;4.73;;;3.10;;
10823;SDS011;39116;59.332;18.034;2023-04-06T06:54:25;4.93;;;3.43;;
10823;SDS011;39116;59.332;18.034;2023-04-06T06:56:47;3.30;;;3.00;;
10823;SDS011;39116;59.332;18.034;2023-04-06T06:59:09;3.17;;;2.87;;
10823;SDS011;39116;59.332;18.034;2023-04-06T07:01:31;4.23;;;3.40;;
10823;SDS011;39116;59.332;18.034;2023-04-06T07:03:54;4.37;;;3.00;;
10823;SDS011;39116;59.332;18.034;2023-04-06T07:06:16;3.73;;;2.80;;
10823;SDS011;39116;59.332;18.034;2023-04-06T07:08:37;5.60;;;3.20;;
10823;SDS011;39116;59.332;18.034;2023-04-06T07:11:01;3.30;;;2.80;;
10823;SDS011;39116;59.332;18.034;2023-04-06T07:13:23;3.40;;;3.10;;
10823;SDS011;39116;59.332;18.034;2023-04-06T07:15:46;4.90;;;3.30;;
10823;SDS011;39116;59.332;18.034;2023-04-06T07:18:08;4.90;;;3.40;;
10823;SDS011;39116;59.332;18.034;2023-04-06T07:20:30;4.93;;;3.30;;
10823;SDS011;39116;59.332;18.034;2023-04-06T07:22:52;3.83;;;3.20;;
10823;SDS011;39116;59.332;18.034;2023-04-06T07:25:14;4.70;;;3.00;;
10823;SDS011;39116;59.332;18.034;2023-04-06T07:27:38;3.17;;;2.60;;
10823;SDS011;39116;59.332;18.034;2023-04-06T07:30:00;5.37;;;3.10;;
10823;SDS011;39116;59.332;18.034;2023-04-06T07:32:21;5.70;;;3.20;;
10823;SDS011;39116;59.332;18.034;2023-04-06T07:34:44;6.13;;;2.83;;
10823;SDS011;39116;59.332;18.034;2023-04-06T07:37:07;3.87;;;2.90;;
10823;SDS011;39116;59.332;18.034;2023-04-06T07:39:28;4.73;;;2.60;;
10823;SDS011;39116;59.332;18.034;2023-04-06T07:41:50;3.43;;;2.50;;
10823;SDS011;39116;59.332;18.034;2023-04-06T07:44:14;3.47;;;2.87;;
10823;SDS011;39116;59.332;18.034;2023-04-06T07:46:36;2.90;;;2.60;;
10823;SDS011;39116;59.332;18.034;2023-04-06T07:48:59;5.67;;;3.07;;
10823;SDS011;39116;59.332;18.034;2023-04-06T07:51:22;3.27;;;2.73;;
10823;SDS011;39116;59.332;18.034;2023-04-06T07:53:44;3.30;;;2.80;;
10823;SDS011;39116;59.332;18.034;2023-04-06T07:56:06;2.57;;;2.37;;
10823;SDS011;39116;59.332;18.034;2023-04-06T07:58:28;4.80;;;2.70;;
10823;SDS011;39116;59.332;18.034;2023-04-06T08:00:51;2.30;;;2.10;;
10823;SDS011;39116;59.332;18.034;2023-04-06T08:03:14;4.03;;;2.47;;
10823;SDS011;39116;59.332;18.034;2023-04-06T08:05:36;3.97;;;2.57;;
10823;SDS011;39116;59.332;18.034;2023-04-06T08:07:58;4.15;;;2.53;;
10823;SDS011;39116;59.332;18.034;2023-04-06T08:10:20;3.70;;;2.77;;
10823;SDS011;39116;59.332;18.034;2023-04-06T08:12:42;3.43;;;2.70;;
10823;SDS011;39116;59.332;18.034;2023-04-06T08:15:05;2.83;;;2.60;;
10823;SDS011;39116;59.332;18.034;2023-04-06T08:17:28;4.10;;;2.53;;
10823;SDS011;39116;59.332;18.034;2023-04-06T08:19:51;4.23;;;2.70;;
10823;SDS011;39116;59.332;18.034;2023-04-06T08:22:13;3.87;;;2.40;;
10823;SDS011;39116;59.332;18.034;2023-04-06T08:24:35;3.17;;;2.50;;
10823;SDS011;39116;59.332;18.034;2023-04-06T08:26:57;2.53;;;2.30;;
10823;SDS011;39116;59.332;18.034;2023-04-06T08:29:18;3.22;;;2.30;;
10823;SDS011;39116;59.332;18.034;2023-04-06T08:31:41;4.33;;;2.50;;
10823;SDS011;39116;59.332;18.034;2023-04-06T08:34:04;3.63;;;2.50;;
10823;SDS011;39116;59.332;18.034;2023-04-06T08:36:26;2.20;;;1.80;;
10823;SDS011;39116;59.332;18.034;2023-04-06T08:38:48;2.83;;;1.90;;
10823;SDS011;39116;59.332;18.034;2023-04-06T08:41:11;2.73;;;1.90;;
10823;SDS011;39116;59.332;18.034;2023-04-06T08:43:35;1.83;;;1.63;;
10823;SDS011;39116;59.332;18.034;2023-04-06T08:46:04;3.10;;;1.90;;
10823;SDS011;39116;59.332;18.034;2023-04-06T08:48:26;1.95;;;1.70;;
10823;SDS011;39116;59.332;18.034;2023-04-06T08:50:51;1.95;;;1.70;;
10823;SDS011;39116;59.332;18.034;2023-04-06T08:53:13;3.30;;;1.98;;
10823;SDS011;39116;59.332;18.034;2023-04-06T08:55:36;2.53;;;1.90;;
10823;SDS011;39116;59.332;18.034;2023-04-06T08:57:59;2.80;;;1.80;;
10823;SDS011;39116;59.332;18.034;2023-04-06T09:00:22;3.60;;;1.93;;
10823;SDS011;39116;59.332;18.034;2023-04-06T09:02:45;3.88;;;1.95;;
10823;SDS011;39116;59.332;18.034;2023-04-06T09:05:08;2.20;;;1.70;;
10823;SDS011;39116;59.332;18.034;2023-04-06T09:07:32;3.20;;;1.70;;
10823;SDS011;39116;59.332;18.034;2023-04-06T09:09:54;2.13;;;1.70;;
10823;SDS011;39116;59.332;18.034;2023-04-06T09:12:22;2.42;;;1.60;;
10823;SDS011;39116;59.332;18.034;2023-04-06T09:14:45;1.80;;;1.70;;
10823;SDS011;39116;59.332;18.034;2023-04-06T09:17:07;2.92;;;1.70;;
10823;SDS011;39116;59.332;18.034;2023-04-06T09:19:29;3.80;;;1.87;;
10823;SDS011;39116;59.332;18.034;2023-04-06T09:22:00;2.73;;;1.80;;
10823;SDS011;39116;59.332;18.034;2023-04-06T09:24:24;1.97;;;1.57;;
10823;SDS011;39116;59.332;18.034;2023-04-06T09:26:46;1.98;;;1.77;;
10823;SDS011;39116;59.332;18.034;2023-04-06T09:29:08;1.85;;;1.65;;
10823;SDS011;39116;59.332;18.034;2023-04-06T09:31:31;3.70;;;1.50;;
10823;SDS011;39116;59.332;18.034;2023-04-06T09:33:53;3.60;;;1.98;;
10823;SDS011;39116;59.332;18.034;2023-04-06T09:36:15;5.20;;;1.80;;
10823;SDS011;39116;59.332;18.034;2023-04-06T09:38:37;2.20;;;1.90;;
10823;SDS011;39116;59.332;18.034;2023-04-06T09:41:01;2.80;;;1.60;;
10823;SDS011;39116;59.332;18.034;2023-04-06T09:43:24;3.13;;;1.80;;
10823;SDS011;39116;59.332;18.034;2023-04-06T09:45:46;2.85;;;1.80;;
10823;SDS011;39116;59.332;18.034;2023-04-06T09:48:08;2.40;;;1.60;;
10823;SDS011;39116;59.332;18.034;2023-04-06T09:50:30;1.83;;;1.63;;
10823;SDS011;39116;59.332;18.034;2023-04-06T09:52:54;1.80;;;1.67;;
10823;SDS011;39116;59.332;18.034;2023-04-06T09:55:20;2.25;;;1.55;;
10823;SDS011;39116;59.332;18.034;2023-04-06T09:57:57;2.63;;;1.70;;
10823;SDS011;39116;59.332;18.034;2023-04-06T10:00:25;2.38;;;1.90;;
10823;SDS011;39116;59.332;18.034;2023-04-06T10:02:49;2.80;;;1.90;;
10823;SDS011;39116;59.332;18.034;2023-04-06T10:05:16;2.17;;;1.98;;
10823;SDS011;39116;59.332;18.034;2023-04-06T10:07:44;2.58;;;1.90;;
10823;SDS011;39116;59.332;18.034;2023-04-06T10:10:06;2.60;;;1.90;;
10823;SDS011;39116;59.332;18.034;2023-04-06T10:12:29;2.22;;;1.77;;
10823;SDS011;39116;59.332;18.034;2023-04-06T10:14:53;5.05;;;2.20;;
10823;SDS011;39116;59.332;18.034;2023-04-06T10:17:15;1.70;;;1.58;;
10823;SDS011;39116;59.332;18.034;2023-04-06T10:19:39;2.35;;;2.00;;
10823;SDS011;39116;59.332;18.034;2023-04-06T10:22:08;2.83;;;1.85;;
10823;SDS011;39116;59.332;18.034;2023-04-06T10:24:33;5.43;;;1.95;;
10823;SDS011;39116;59.332;18.034;2023-04-06T10:26:57;6.95;;;1.95;;
10823;SDS011;39116;59.332;18.034;2023-04-06T10:29:20;2.08;;;1.88;;
10823;SDS011;39116;59.332;18.034;2023-04-06T10:31:43;6.88;;;2.08;;
10823;SDS011;39116;59.332;18.034;2023-04-06T10:34:05;5.30;;;2.08;;
10823;SDS011;39116;59.332;18.034;2023-04-06T10:36:28;2.38;;;2.08;;
10823;SDS011;39116;59.332;18.034;2023-04-06T10:38:54;4.93;;;2.28;;
10823;SDS011;39116;59.332;18.034;2023-04-06T10:41:17;5.57;;;3.28;;
10823;SDS011;39116;59.332;18.034;2023-04-06T10:43:41;6.10;;;3.72;;
10823;SDS011;39116;59.332;18.034;2023-04-06T10:46:03;5.95;;;2.83;;
10823;SDS011;39116;59.332;18.034;2023-04-06T10:48:37;4.47;;;2.60;;
10823;SDS011;39116;59.332;18.034;2023-04-06T10:51:00;6.55;;;2.67;;
10823;SDS011;39116;59.332;18.034;2023-04-06T10:53:22;2.83;;;1.75;;
10823;SDS011;39116;59.332;18.034;2023-04-06T10:55:45;2.25;;;1.90;;
10823;SDS011;39116;59.332;18.034;2023-04-06T10:58:10;2.17;;;1.98;;
10823;SDS011;39116;59.332;18.034;2023-04-06T11:00:32;3.35;;;2.00;;
10823;SDS011;39116;59.332;18.034;2023-04-06T11:02:58;3.03;;;1.88;;
10823;SDS011;39116;59.332;18.034;2023-04-06T11:05:22;3.90;;;2.13;;
10823;SDS011;39116;59.332;18.034;2023-04-06T11:07:44;3.10;;;1.70;;
10823;SDS011;39116;59.332;18.034;2023-04-06T11:10:06;6.78;;;2.17;;
10823;SDS011;39116;59.332;18.034;2023-04-06T11:12:29;2.42;;;1.80;;
10823;SDS011;39116;59.332;18.034;2023-04-06T11:14:55;2.47;;;1.83;;
10823;SDS011;39116;59.332;18.034;2023-04-06T11:17:25;5.03;;;1.85;;
10823;SDS011;39116;59.332;18.034;2023-04-06T11:19:47;2.90;;;1.83;;
10823;SDS011;39116;59.332;18.034;2023-04-06T11:22:11;2.20;;;1.90;;
10823;SDS011;39116;59.332;18.034;2023-04-06T11:24:33;3.35;;;1.92;;
10823;SDS011;39116;59.332;18.034;2023-04-06T11:26:55;2.80;;;2.28;;
10823;SDS011;39116;59.332;18.034;2023-04-06T11:29:19;4.35;;;2.22;;
10823;SDS011;39116;59.332;18.034;2023-04-06T11:31:42;3.78;;;1.85;;
10823;SDS011;39116;59.332;18.034;2023-04-06T11:34:10;3.60;;;2.00;;
10823;SDS011;39116;59.332;18.034;2023-04-06T11:36:33;3.78;;;2.20;;
10823;SDS011;39116;59.332;18.034;2023-04-06T11:38:57;3.45;;;2.10;;
10823;SDS011;39116;59.332;18.034;2023-04-06T11:41:22;2.45;;;1.90;;
10823;SDS011;39116;59.332;18.034;2023-04-06T11:43:46;3.28;;;2.00;;
10823;SDS011;39116;59.332;18.034;2023-04-06T11:46:09;3.15;;;1.92;;
10823;SDS011;39116;59.332;18.034;2023-04-06T11:48:32;3.25;;;2.20;;
10823;SDS011;39116;59.332;18.034;2023-04-06T11:51:05;3.70;;;1.85;;
10823;SDS011;39116;59.332;18.034;2023-04-06T11:53:27;3.20;;;1.70;;
10823;SDS011;39116;59.332;18.034;2023-04-06T11:55:51;2.20;;;2.00;;
10823;SDS011;39116;59.332;18.034;2023-04-06T11:58:13;2.78;;;2.28;;
10823;SDS011;39116;59.332;18.034;2023-04-06T12:00:35;3.28;;;2.22;;
10823;SDS011;39116;59.332;18.034;2023-04-06T12:02:57;2.47;;;1.92;;
10823;SDS011;39116;59.332;18.034;2023-04-06T12:05:19;2.88;;;2.05;;
10823;SDS011;39116;59.332;18.034;2023-04-06T12:07:41;2.85;;;2.15;;
10823;SDS011;39116;59.332;18.034;2023-04-06T12:10:03;4.28;;;1.80;;
10823;SDS011;39116;59.332;18.034;2023-04-06T12:12:27;3.95;;;2.17;;
10823;SDS011;39116;59.332;18.034;2023-04-06T12:14:49;2.95;;;2.13;;
10823;SDS011;39116;59.332;18.034;2023-04-06T12:17:11;3.08;;;2.00;;
10823;SDS011;39116;59.332;18.034;2023-04-06T12:19:33;1.95;;;1.60;;
10823;SDS011;39116;59.332;18.034;2023-04-06T12:21:55;3.03;;;1.55;;
10823;SDS011;39116;59.332;18.034;2023-04-06T12:24:18;2.75;;;2.03;;
10823;SDS011;39116;59.332;18.034;2023-04-06T12:26:40;3.33;;;2.10;;
10823;SDS011;39116;59.332;18.034;2023-04-06T12:29:05;4.05;;;2.20;;
10823;SDS011;39116;59.332;18.034;2023-04-06T12:31:28;4.85;;;2.25;;
10823;SDS011;39116;59.332;18.034;2023-04-06T12:33:50;2.20;;;2.00;;
10823;SDS011;39116;59.332;18.034;2023-04-06T12:36:12;2.65;;;1.90;;
10823;SDS011;39116;59.332;18.034;2023-04-06T12:38:34;2.58;;;1.80;;
10823;SDS011;39116;59.332;18.034;2023-04-06T12:40:58;3.17;;;1.60;;
10823;SDS011;39116;59.332;18.034;2023-04-06T12:43:20;3.13;;;2.00;;
10823;SDS011;39116;59.332;18.034;2023-04-06T12:45:43;2.33;;;1.75;;
10823;SDS011;39116;59.332;18.034;2023-04-06T12:48:06;3.45;;;2.10;;
10823;SDS011;39116;59.332;18.034;2023-04-06T12:50:28;3.58;;;2.00;;
10823;SDS011;39116;59.332;18.034;2023-04-06T12:52:50;3.67;;;2.05;;
10823;SDS011;39116;59.332;18.034;2023-04-06T12:55:12;5.47;;;1.90;;
10823;SDS011;39116;59.332;18.034;2023-04-06T12:57:34;2.80;;;2.10;;
10823;SDS011;39116;59.332;18.034;2023-04-06T12:59:57;2.40;;;1.90;;
10823;SDS011;39116;59.332;18.034;2023-04-06T13:02:20;2.65;;;2.13;;
10823;SDS011;39116;59.332;18.034;2023-04-06T13:04:42;4.57;;;1.85;;
10823;SDS011;39116;59.332;18.034;2023-04-06T13:07:04;3.35;;;1.77;;
10823;SDS011;39116;59.332;18.034;2023-04-06T13:09:27;2.65;;;2.00;;
10823;SDS011;39116;59.332;18.034;2023-04-06T13:11:49;3.67;;;2.20;;
10823;SDS011;39116;59.332;18.034;2023-04-06T13:14:11;4.07;;;2.83;;
10823;SDS011;39116;59.332;18.034;2023-04-06T13:16:32;2.25;;;2.03;;
10823;SDS011;39116;59.332;18.034;2023-04-06T13:18:56;4.93;;;2.00;;
10823;SDS011;39116;59.332;18.034;2023-04-06T13:21:18;5.43;;;2.75;;
10823;SDS011;39116;59.332;18.034;2023-04-06T13:23:41;4.50;;;2.00;;
10823;SDS011;39116;59.332;18.034;2023-04-06T13:26:03;2.42;;;2.03;;
10823;SDS011;39116;59.332;18.034;2023-04-06T13:28:26;4.13;;;2.30;;
10823;SDS011;39116;59.332;18.034;2023-04-06T13:30:48;4.47;;;2.17;;
10823;SDS011;39116;59.332;18.034;2023-04-06T13:33:10;3.90;;;2.17;;
10823;SDS011;39116;59.332;18.034;2023-04-06T13:35:34;4.45;;;1.88;;
10823;SDS011;39116;59.332;18.034;2023-04-06T13:37:56;2.80;;;1.95;;
10823;SDS011;39116;59.332;18.034;2023-04-06T13:40:18;5.82;;;1.90;;
10823;SDS011;39116;59.332;18.034;2023-04-06T13:42:40;3.10;;;2.03;;
10823;SDS011;39116;59.332;18.034;2023-04-06T13:45:05;2.88;;;2.10;;
10823;SDS011;39116;59.332;18.034;2023-04-06T13:47:28;3.55;;;2.03;;
10823;SDS011;39116;59.332;18.034;2023-04-06T13:49:49;1.80;;;1.70;;
10823;SDS011;39116;59.332;18.034;2023-04-06T13:52:14;3.13;;;2.10;;
10823;SDS011;39116;59.332;18.034;2023-04-06T13:54:36;1.70;;;1.60;;
10823;SDS011;39116;59.332;18.034;2023-04-06T13:56:59;2.72;;;1.70;;
10823;SDS011;39116;59.332;18.034;2023-04-06T13:59:21;3.15;;;2.00;;
10823;SDS011;39116;59.332;18.034;2023-04-06T14:01:42;2.90;;;2.13;;
10823;SDS011;39116;59.332;18.034;2023-04-06T14:04:04;4.60;;;2.15;;
10823;SDS011;39116;59.332;18.034;2023-04-06T14:06:26;3.10;;;2.15;;